sensor_id;sensor_type;location;lat;lon;timestamp;temperature;humidity
22161;DHT22;49035;48.812;11.762;2023-01-06T00:00:07;4.90;99.90
22161;DHT22;49035;48.812;11.762;2023-01-06T00:02:32;4.90;99.90
22161;DHT22;49035;48.812;11.762;2023-01-06T00:04:58;5.00;99.90
22161;DHT22;49035;48.812;11.762;2023-01-06T00:07:23;5.10;99.90
22161;DHT22;49035;48.812;11.762;2023-01-06T00:09:49;5.10;99.90
22161;DHT22;49035;48.812;11.762;2023-01-06T00:12:14;5.10;99.90
22161;DHT22;49035;48.812;11.762;2023-01-06T00:14:40;5.00;99.90
22161;DHT22;49035;48.812;11.762;2023-01-06T00:17:07;5.10;99.90
22161;DHT22;49035;48.812;11.762;2023-01-06T00:19:33;5.10;99.90
22161;DHT22;49035;48.812;11.762;2023-01-06T00:21:58;5.10;99.90
22161;DHT22;49035;48.812;11.762;2023-01-06T00:24:24;5.10;99.90
22161;DHT22;49035;48.812;11.762;2023-01-06T00:26:49;5.10;99.90
22161;DHT22;49035;48.812;11.762;2023-01-06T00:29:15;5.20;99.90
22161;DHT22;49035;48.812;11.762;2023-01-06T00:31:40;5.20;99.90
22161;DHT22;49035;48.812;11.762;2023-01-06T00:34:06;5.40;99.90
22161;DHT22;49035;48.812;11.762;2023-01-06T00:36:34;5.40;99.90
22161;DHT22;49035;48.812;11.762;2023-01-06T00:39:00;5.30;99.90
22161;DHT22;49035;48.812;11.762;2023-01-06T00:41:26;5.30;99.90
22161;DHT22;49035;48.812;11.762;2023-01-06T00:44:10;5.20;99.90
22161;DHT22;49035;48.812;11.762;2023-01-06T00:46:35;5.20;99.90
22161;DHT22;49035;48.812;11.762;2023-01-06T00:49:01;5.10;99.90
22161;DHT22;49035;48.812;11.762;2023-01-06T00:51:27;5.20;99.90
22161;DHT22;49035;48.812;11.762;2023-01-06T00:53:53;5.20;99.90
22161;DHT22;49035;48.812;11.762;2023-01-06T00:56:19;5.20;99.90
22161;DHT22;49035;48.812;11.762;2023-01-06T00:58:44;5.30;99.90
22161;DHT22;49035;48.812;11.762;2023-01-06T01:01:10;5.30;99.90
22161;DHT22;49035;48.812;11.762;2023-01-06T01:03:37;5.30;99.90
22161;DHT22;49035;48.812;11.762;2023-01-06T01:06:06;5.40;99.90
22161;DHT22;49035;48.812;11.762;2023-01-06T01:08:32;5.40;99.90
22161;DHT22;49035;48.812;11.762;2023-01-06T01:11:03;5.30;99.90
22161;DHT22;49035;48.812;11.762;2023-01-06T01:13:29;5.30;99.90
22161;DHT22;49035;48.812;11.762;2023-01-06T01:15:54;5.30;99.90
22161;DHT22;49035;48.812;11.762;2023-01-06T01:18:20;5.30;99.90
22161;DHT22;49035;48.812;11.762;2023-01-06T01:20:46;5.30;99.90
22161;DHT22;49035;48.812;11.762;2023-01-06T01:23:12;5.30;99.90
22161;DHT22;49035;48.812;11.762;2023-01-06T01:25:38;5.30;99.90
22161;DHT22;49035;48.812;11.762;2023-01-06T01:28:05;5.30;99.90
22161;DHT22;49035;48.812;11.762;2023-01-06T01:30:31;5.40;99.90
22161;DHT22;49035;48.812;11.762;2023-01-06T01:32:57;5.30;99.90
22161;DHT22;49035;48.812;11.762;2023-01-06T01:35:22;5.30;99.90
22161;DHT22;49035;48.812;11.762;2023-01-06T01:37:48;5.20;99.90
22161;DHT22;49035;48.812;11.762;2023-01-06T01:40:13;5.20;99.90
22161;DHT22;49035;48.812;11.762;2023-01-06T01:42:39;5.20;99.90
22161;DHT22;49035;48.812;11.762;2023-01-06T01:45:26;5.10;99.90
22161;DHT22;49035;48.812;11.762;2023-01-06T01:47:56;5.20;99.90
22161;DHT22;49035;48.812;11.762;2023-01-06T01:50:38;5.20;99.90
22161;DHT22;49035;48.812;11.762;2023-01-06T01:53:14;5.20;99.90
22161;DHT22;49035;48.812;11.762;2023-01-06T01:55:42;5.10;99.90
22161;DHT22;49035;48.812;11.762;2023-01-06T01:58:28;5.10;99.90
22161;DHT22;49035;48.812;11.762;2023-01-06T02:00:55;5.20;99.90
22161;DHT22;49035;48.812;11.762;2023-01-06T02:03:22;5.10;99.90
22161;DHT22;49035;48.812;11.762;2023-01-06T02:05:52;5.00;99.90
22161;DHT22;49035;48.812;11.762;2023-01-06T02:08:40;5.00;99.90
22161;DHT22;49035;48.812;11.762;2023-01-06T02:11:08;5.00;99.90
22161;DHT22;49035;48.812;11.762;2023-01-06T02:13:35;5.20;99.90
22161;DHT22;49035;48.812;11.762;2023-01-06T02:16:13;5.20;99.90
22161;DHT22;49035;48.812;11.762;2023-01-06T02:19:18;5.10;99.90
22161;DHT22;49035;48.812;11.762;2023-01-06T02:41:22;4.40;99.90
22161;DHT22;49035;48.812;11.762;2023-01-06T02:46:51;4.60;99.90
22161;DHT22;49035;48.812;11.762;2023-01-06T02:52:35;4.70;99.90
22161;DHT22;49035;48.812;11.762;2023-01-06T02:55:15;4.70;99.90
22161;DHT22;49035;48.812;11.762;2023-01-06T02:57:59;4.70;99.90
22161;DHT22;49035;48.812;11.762;2023-01-06T03:00:31;4.80;99.90
22161;DHT22;49035;48.812;11.762;2023-01-06T03:03:00;4.80;99.90
22161;DHT22;49035;48.812;11.762;2023-01-06T03:05:29;5.00;99.90
22161;DHT22;49035;48.812;11.762;2023-01-06T03:07:58;5.00;99.90
22161;DHT22;49035;48.812;11.762;2023-01-06T03:10:26;4.90;99.90
22161;DHT22;49035;48.812;11.762;2023-01-06T03:13:14;4.90;99.90
22161;DHT22;49035;48.812;11.762;2023-01-06T03:15:41;4.90;99.90
22161;DHT22;49035;48.812;11.762;2023-01-06T03:18:07;4.90;99.90
22161;DHT22;49035;48.812;11.762;2023-01-06T03:20:33;4.90;99.90
22161;DHT22;49035;48.812;11.762;2023-01-06T03:22:59;4.90;99.90
22161;DHT22;49035;48.812;11.762;2023-01-06T03:25:25;4.90;99.90
22161;DHT22;49035;48.812;11.762;2023-01-06T03:27:51;4.90;99.90
22161;DHT22;49035;48.812;11.762;2023-01-06T03:30:16;4.80;99.90
22161;DHT22;49035;48.812;11.762;2023-01-06T03:32:58;4.80;99.90
22161;DHT22;49035;48.812;11.762;2023-01-06T03:35:59;4.80;99.90
22161;DHT22;49035;48.812;11.762;2023-01-06T03:44:05;5.10;99.90
22161;DHT22;49035;48.812;11.762;2023-01-06T03:46:38;4.90;99.90
22161;DHT22;49035;48.812;11.762;2023-01-06T03:49:08;4.80;99.90
22161;DHT22;49035;48.812;11.762;2023-01-06T03:51:53;4.70;99.90
22161;DHT22;49035;48.812;11.762;2023-01-06T03:59:29;4.70;99.90
22161;DHT22;49035;48.812;11.762;2023-01-06T04:01:57;4.60;99.90
22161;DHT22;49035;48.812;11.762;2023-01-06T04:04:23;4.70;99.90
22161;DHT22;49035;48.812;11.762;2023-01-06T04:06:49;4.70;99.90
22161;DHT22;49035;48.812;11.762;2023-01-06T04:09:15;4.60;99.90
22161;DHT22;49035;48.812;11.762;2023-01-06T04:11:40;4.50;99.90
22161;DHT22;49035;48.812;11.762;2023-01-06T04:14:24;4.50;99.90
22161;DHT22;49035;48.812;11.762;2023-01-06T04:16:50;4.40;99.90
22161;DHT22;49035;48.812;11.762;2023-01-06T04:19:15;4.30;99.90
22161;DHT22;49035;48.812;11.762;2023-01-06T04:21:41;4.20;99.90
22161;DHT22;49035;48.812;11.762;2023-01-06T04:24:07;4.20;99.90
22161;DHT22;49035;48.812;11.762;2023-01-06T04:26:32;4.20;99.90
22161;DHT22;49035;48.812;11.762;2023-01-06T04:28:59;4.20;99.90
22161;DHT22;49035;48.812;11.762;2023-01-06T04:31:25;4.20;99.90
22161;DHT22;49035;48.812;11.762;2023-01-06T04:33:50;4.20;99.90
22161;DHT22;49035;48.812;11.762;2023-01-06T04:36:16;4.30;99.90
22161;DHT22;49035;48.812;11.762;2023-01-06T04:38:41;4.40;99.90
22161;DHT22;49035;48.812;11.762;2023-01-06T04:41:07;4.40;99.90
22161;DHT22;49035;48.812;11.762;2023-01-06T04:43:33;4.50;99.90
22161;DHT22;49035;48.812;11.762;2023-01-06T04:45:59;4.50;99.90
22161;DHT22;49035;48.812;11.762;2023-01-06T04:48:24;4.50;99.90
22161;DHT22;49035;48.812;11.762;2023-01-06T04:51:07;4.40;99.90
22161;DHT22;49035;48.812;11.762;2023-01-06T04:53:35;4.40;99.90
22161;DHT22;49035;48.812;11.762;2023-01-06T04:56:02;4.40;99.90
22161;DHT22;49035;48.812;11.762;2023-01-06T04:58:28;4.50;99.90
22161;DHT22;49035;48.812;11.762;2023-01-06T05:01:02;4.50;99.90
22161;DHT22;49035;48.812;11.762;2023-01-06T05:03:28;4.50;99.90
22161;DHT22;49035;48.812;11.762;2023-01-06T05:05:54;4.50;99.90
22161;DHT22;49035;48.812;11.762;2023-01-06T05:08:20;4.30;99.90
22161;DHT22;49035;48.812;11.762;2023-01-06T05:10:45;4.20;99.90
22161;DHT22;49035;48.812;11.762;2023-01-06T05:13:11;4.20;99.90
22161;DHT22;49035;48.812;11.762;2023-01-06T05:15:38;4.10;99.90
22161;DHT22;49035;48.812;11.762;2023-01-06T05:18:04;4.10;99.90
22161;DHT22;49035;48.812;11.762;2023-01-06T05:20:29;4.20;99.90
22161;DHT22;49035;48.812;11.762;2023-01-06T05:22:55;4.30;99.90
22161;DHT22;49035;48.812;11.762;2023-01-06T05:25:21;4.30;99.90
22161;DHT22;49035;48.812;11.762;2023-01-06T05:27:46;4.40;99.90
22161;DHT22;49035;48.812;11.762;2023-01-06T05:30:12;4.50;99.90
22161;DHT22;49035;48.812;11.762;2023-01-06T05:32:38;4.40;99.90
22161;DHT22;49035;48.812;11.762;2023-01-06T05:35:03;4.50;99.90
22161;DHT22;49035;48.812;11.762;2023-01-06T05:37:29;4.50;99.90
22161;DHT22;49035;48.812;11.762;2023-01-06T05:39:55;4.50;99.90
22161;DHT22;49035;48.812;11.762;2023-01-06T05:42:20;4.50;99.90
22161;DHT22;49035;48.812;11.762;2023-01-06T05:44:46;4.60;99.90
22161;DHT22;49035;48.812;11.762;2023-01-06T05:47:11;4.50;99.90
22161;DHT22;49035;48.812;11.762;2023-01-06T05:49:37;4.50;99.90
22161;DHT22;49035;48.812;11.762;2023-01-06T05:52:02;4.50;99.90
22161;DHT22;49035;48.812;11.762;2023-01-06T05:54:28;4.60;99.90
22161;DHT22;49035;48.812;11.762;2023-01-06T05:56:54;4.60;99.90
22161;DHT22;49035;48.812;11.762;2023-01-06T05:59:19;4.60;99.90
22161;DHT22;49035;48.812;11.762;2023-01-06T06:01:45;4.70;99.90
22161;DHT22;49035;48.812;11.762;2023-01-06T06:04:11;4.70;99.90
22161;DHT22;49035;48.812;11.762;2023-01-06T06:06:37;4.70;99.90
22161;DHT22;49035;48.812;11.762;2023-01-06T06:09:04;4.70;99.90
22161;DHT22;49035;48.812;11.762;2023-01-06T06:11:30;4.70;99.90
22161;DHT22;49035;48.812;11.762;2023-01-06T06:13:56;4.70;99.90
22161;DHT22;49035;48.812;11.762;2023-01-06T06:16:26;4.70;99.90
22161;DHT22;49035;48.812;11.762;2023-01-06T06:18:56;4.80;99.90
22161;DHT22;49035;48.812;11.762;2023-01-06T06:21:28;4.90;99.90
22161;DHT22;49035;48.812;11.762;2023-01-06T06:23:55;4.90;99.90
22161;DHT22;49035;48.812;11.762;2023-01-06T06:26:22;4.90;99.90
22161;DHT22;49035;48.812;11.762;2023-01-06T06:28:47;4.90;99.90
22161;DHT22;49035;48.812;11.762;2023-01-06T06:31:17;4.80;99.90
22161;DHT22;49035;48.812;11.762;2023-01-06T06:33:43;4.80;99.90
22161;DHT22;49035;48.812;11.762;2023-01-06T06:36:09;4.90;99.90
22161;DHT22;49035;48.812;11.762;2023-01-06T06:38:42;5.00;99.90
22161;DHT22;49035;48.812;11.762;2023-01-06T06:41:08;5.00;99.90
22161;DHT22;49035;48.812;11.762;2023-01-06T06:43:33;5.00;99.90
22161;DHT22;49035;48.812;11.762;2023-01-06T06:45:59;4.90;99.90
22161;DHT22;49035;48.812;11.762;2023-01-06T06:48:27;4.80;99.90
22161;DHT22;49035;48.812;11.762;2023-01-06T06:53:26;4.90;99.90
22161;DHT22;49035;48.812;11.762;2023-01-06T06:55:52;5.00;99.90
22161;DHT22;49035;48.812;11.762;2023-01-06T06:58:18;5.00;99.90
22161;DHT22;49035;48.812;11.762;2023-01-06T07:00:44;5.10;99.90
22161;DHT22;49035;48.812;11.762;2023-01-06T07:03:09;5.00;99.90
22161;DHT22;49035;48.812;11.762;2023-01-06T07:05:35;4.90;99.90
22161;DHT22;49035;48.812;11.762;2023-01-06T07:08:02;4.70;99.90
22161;DHT22;49035;48.812;11.762;2023-01-06T07:10:28;4.50;99.90
22161;DHT22;49035;48.812;11.762;2023-01-06T07:12:53;4.30;99.90
22161;DHT22;49035;48.812;11.762;2023-01-06T07:15:19;4.20;99.90
22161;DHT22;49035;48.812;11.762;2023-01-06T07:17:45;4.20;99.90
22161;DHT22;49035;48.812;11.762;2023-01-06T07:20:10;4.10;99.90
22161;DHT22;49035;48.812;11.762;2023-01-06T07:22:39;4.00;99.90
22161;DHT22;49035;48.812;11.762;2023-01-06T07:25:06;3.90;99.90
22161;DHT22;49035;48.812;11.762;2023-01-06T07:27:33;3.90;99.90
22161;DHT22;49035;48.812;11.762;2023-01-06T07:29:58;3.90;99.90
22161;DHT22;49035;48.812;11.762;2023-01-06T07:32:24;3.90;99.90
22161;DHT22;49035;48.812;11.762;2023-01-06T07:34:50;4.00;99.90
22161;DHT22;49035;48.812;11.762;2023-01-06T07:37:15;3.80;99.90
22161;DHT22;49035;48.812;11.762;2023-01-06T07:39:41;3.80;99.90
22161;DHT22;49035;48.812;11.762;2023-01-06T07:42:08;3.80;99.90
22161;DHT22;49035;48.812;11.762;2023-01-06T07:44:33;3.80;99.90
22161;DHT22;49035;48.812;11.762;2023-01-06T07:46:59;4.00;99.90
22161;DHT22;49035;48.812;11.762;2023-01-06T07:49:24;4.20;99.90
22161;DHT22;49035;48.812;11.762;2023-01-06T07:51:50;4.40;99.90
22161;DHT22;49035;48.812;11.762;2023-01-06T07:54:15;4.60;99.90
22161;DHT22;49035;48.812;11.762;2023-01-06T07:56:41;4.80;99.90
22161;DHT22;49035;48.812;11.762;2023-01-06T07:59:08;4.90;99.90
22161;DHT22;49035;48.812;11.762;2023-01-06T08:01:34;5.00;99.90
22161;DHT22;49035;48.812;11.762;2023-01-06T08:03:59;5.10;99.90
22161;DHT22;49035;48.812;11.762;2023-01-06T08:06:25;5.20;99.90
22161;DHT22;49035;48.812;11.762;2023-01-06T08:08:51;5.30;99.90
22161;DHT22;49035;48.812;11.762;2023-01-06T08:11:22;5.40;99.90
22161;DHT22;49035;48.812;11.762;2023-01-06T08:13:48;5.50;99.90
22161;DHT22;49035;48.812;11.762;2023-01-06T08:16:13;5.60;99.90
22161;DHT22;49035;48.812;11.762;2023-01-06T08:18:39;5.90;99.90
22161;DHT22;49035;48.812;11.762;2023-01-06T08:21:07;5.90;99.90
22161;DHT22;49035;48.812;11.762;2023-01-06T08:23:33;6.40;99.90
22161;DHT22;49035;48.812;11.762;2023-01-06T08:26:07;6.70;99.90
22161;DHT22;49035;48.812;11.762;2023-01-06T08:28:33;6.90;99.90
22161;DHT22;49035;48.812;11.762;2023-01-06T08:30:59;7.10;99.90
22161;DHT22;49035;48.812;11.762;2023-01-06T08:33:25;7.20;99.90
22161;DHT22;49035;48.812;11.762;2023-01-06T08:35:59;7.30;99.90
22161;DHT22;49035;48.812;11.762;2023-01-06T08:38:29;7.30;99.90
22161;DHT22;49035;48.812;11.762;2023-01-06T08:40:56;7.30;99.90
22161;DHT22;49035;48.812;11.762;2023-01-06T08:43:22;7.50;99.90
22161;DHT22;49035;48.812;11.762;2023-01-06T08:45:48;7.70;99.90
22161;DHT22;49035;48.812;11.762;2023-01-06T08:48:14;7.80;99.90
22161;DHT22;49035;48.812;11.762;2023-01-06T08:50:40;7.80;99.90
22161;DHT22;49035;48.812;11.762;2023-01-06T08:53:07;7.90;99.90
22161;DHT22;49035;48.812;11.762;2023-01-06T08:55:33;7.90;99.90
22161;DHT22;49035;48.812;11.762;2023-01-06T08:58:01;7.80;99.90
22161;DHT22;49035;48.812;11.762;2023-01-06T09:00:27;7.70;99.90
22161;DHT22;49035;48.812;11.762;2023-01-06T09:02:53;7.90;99.90
22161;DHT22;49035;48.812;11.762;2023-01-06T09:05:18;8.10;99.90
22161;DHT22;49035;48.812;11.762;2023-01-06T09:07:44;8.30;99.90
22161;DHT22;49035;48.812;11.762;2023-01-06T09:10:09;8.50;99.90
22161;DHT22;49035;48.812;11.762;2023-01-06T09:12:36;8.70;99.90
22161;DHT22;49035;48.812;11.762;2023-01-06T09:15:02;9.00;99.90
22161;DHT22;49035;48.812;11.762;2023-01-06T09:17:28;9.10;99.90
22161;DHT22;49035;48.812;11.762;2023-01-06T09:19:54;9.20;99.90
22161;DHT22;49035;48.812;11.762;2023-01-06T09:22:19;9.20;99.90
22161;DHT22;49035;48.812;11.762;2023-01-06T09:24:45;9.20;99.90
22161;DHT22;49035;48.812;11.762;2023-01-06T09:27:11;9.40;99.90
22161;DHT22;49035;48.812;11.762;2023-01-06T09:29:36;9.30;99.90
22161;DHT22;49035;48.812;11.762;2023-01-06T09:32:02;9.10;99.90
22161;DHT22;49035;48.812;11.762;2023-01-06T09:34:28;9.00;99.90
22161;DHT22;49035;48.812;11.762;2023-01-06T09:36:54;9.10;99.90
22161;DHT22;49035;48.812;11.762;2023-01-06T09:39:19;9.20;99.90
22161;DHT22;49035;48.812;11.762;2023-01-06T09:41:55;9.50;99.90
22161;DHT22;49035;48.812;11.762;2023-01-06T09:44:30;9.80;99.90
22161;DHT22;49035;48.812;11.762;2023-01-06T09:46:58;10.00;99.90
22161;DHT22;49035;48.812;11.762;2023-01-06T09:49:28;10.10;99.90
22161;DHT22;49035;48.812;11.762;2023-01-06T09:52:04;10.30;99.90
22161;DHT22;49035;48.812;11.762;2023-01-06T09:54:38;10.40;99.90
22161;DHT22;49035;48.812;11.762;2023-01-06T09:57:21;10.40;99.90
22161;DHT22;49035;48.812;11.762;2023-01-06T10:02:38;10.50;99.90
22161;DHT22;49035;48.812;11.762;2023-01-06T10:05:27;10.50;99.90
22161;DHT22;49035;48.812;11.762;2023-01-06T10:08:07;10.60;99.90
22161;DHT22;49035;48.812;11.762;2023-01-06T10:11:02;10.50;99.90
22161;DHT22;49035;48.812;11.762;2023-01-06T10:19:16;10.60;99.90
22161;DHT22;49035;48.812;11.762;2023-01-06T10:21:47;10.80;99.90
22161;DHT22;49035;48.812;11.762;2023-01-06T10:24:27;10.90;99.90
22161;DHT22;49035;48.812;11.762;2023-01-06T10:27:08;11.10;99.90
22161;DHT22;49035;48.812;11.762;2023-01-06T10:29:37;11.30;99.90
22161;DHT22;49035;48.812;11.762;2023-01-06T10:32:05;11.50;99.90
22161;DHT22;49035;48.812;11.762;2023-01-06T10:34:35;11.60;99.90
22161;DHT22;49035;48.812;11.762;2023-01-06T10:37:25;11.60;99.90
22161;DHT22;49035;48.812;11.762;2023-01-06T10:40:12;11.60;99.90
22161;DHT22;49035;48.812;11.762;2023-01-06T10:47:56;11.60;99.90
22161;DHT22;49035;48.812;11.762;2023-01-06T10:50:22;11.50;99.90
22161;DHT22;49035;48.812;11.762;2023-01-06T10:52:48;11.20;99.90
22161;DHT22;49035;48.812;11.762;2023-01-06T10:58:32;10.80;99.90
22161;DHT22;49035;48.812;11.762;2023-01-06T11:01:11;10.80;99.90
22161;DHT22;49035;48.812;11.762;2023-01-06T11:03:39;10.80;99.90
22161;DHT22;49035;48.812;11.762;2023-01-06T11:06:27;10.70;99.90
22161;DHT22;49035;48.812;11.762;2023-01-06T11:08:53;10.50;99.90
22161;DHT22;49035;48.812;11.762;2023-01-06T11:11:19;10.50;99.90
22161;DHT22;49035;48.812;11.762;2023-01-06T11:13:48;10.50;99.90
22161;DHT22;49035;48.812;11.762;2023-01-06T11:16:29;10.80;99.90
22161;DHT22;49035;48.812;11.762;2023-01-06T11:19:06;11.10;99.90
22161;DHT22;49035;48.812;11.762;2023-01-06T11:21:44;11.10;99.90
22161;DHT22;49035;48.812;11.762;2023-01-06T11:24:20;11.20;99.90
22161;DHT22;49035;48.812;11.762;2023-01-06T11:26:55;11.30;99.90
22161;DHT22;49035;48.812;11.762;2023-01-06T11:31:56;11.40;99.90
22161;DHT22;49035;48.812;11.762;2023-01-06T11:34:24;11.40;99.90
22161;DHT22;49035;48.812;11.762;2023-01-06T11:36:53;11.60;99.90
22161;DHT22;49035;48.812;11.762;2023-01-06T11:39:34;12.00;99.90
22161;DHT22;49035;48.812;11.762;2023-01-06T11:42:12;12.20;99.90
22161;DHT22;49035;48.812;11.762;2023-01-06T11:44:40;12.30;99.90
22161;DHT22;49035;48.812;11.762;2023-01-06T11:47:27;12.10;99.90
22161;DHT22;49035;48.812;11.762;2023-01-06T11:49:56;11.90;99.90
22161;DHT22;49035;48.812;11.762;2023-01-06T11:52:24;11.60;99.90
22161;DHT22;49035;48.812;11.762;2023-01-06T12:03:22;10.40;99.90
22161;DHT22;49035;48.812;11.762;2023-01-06T12:08:38;10.60;99.90
22161;DHT22;49035;48.812;11.762;2023-01-06T12:11:13;10.70;99.90
22161;DHT22;49035;48.812;11.762;2023-01-06T12:13:41;10.60;99.90
22161;DHT22;49035;48.812;11.762;2023-01-06T12:19:19;10.70;99.90
22161;DHT22;49035;48.812;11.762;2023-01-06T12:21:47;10.50;99.90
22161;DHT22;49035;48.812;11.762;2023-01-06T12:24:15;10.10;99.90
22161;DHT22;49035;48.812;11.762;2023-01-06T12:26:44;10.00;99.90
22161;DHT22;49035;48.812;11.762;2023-01-06T12:29:15;9.80;99.90
22161;DHT22;49035;48.812;11.762;2023-01-06T12:31:54;9.80;99.90
22161;DHT22;49035;48.812;11.762;2023-01-06T12:34:30;9.90;99.90
22161;DHT22;49035;48.812;11.762;2023-01-06T12:43:16;9.80;99.90
22161;DHT22;49035;48.812;11.762;2023-01-06T12:45:53;9.80;99.90
22161;DHT22;49035;48.812;11.762;2023-01-06T12:51:18;9.80;99.90
22161;DHT22;49035;48.812;11.762;2023-01-06T12:53:53;9.90;99.90
22161;DHT22;49035;48.812;11.762;2023-01-06T12:56:33;10.00;99.90
22161;DHT22;49035;48.812;11.762;2023-01-06T13:01:56;10.00;99.90
22161;DHT22;49035;48.812;11.762;2023-01-06T13:04:43;10.10;99.90
22161;DHT22;49035;48.812;11.762;2023-01-06T13:10:50;10.00;99.90
22161;DHT22;49035;48.812;11.762;2023-01-06T13:15:45;10.10;99.90
22161;DHT22;49035;48.812;11.762;2023-01-06T13:18:38;10.10;99.90
22161;DHT22;49035;48.812;11.762;2023-01-06T13:21:10;10.20;99.90
22161;DHT22;49035;48.812;11.762;2023-01-06T13:29:35;10.20;99.90
22161;DHT22;49035;48.812;11.762;2023-01-06T13:32:29;10.30;99.90
22161;DHT22;49035;48.812;11.762;2023-01-06T13:35:08;10.20;99.90
22161;DHT22;49035;48.812;11.762;2023-01-06T13:37:55;10.30;99.90
22161;DHT22;49035;48.812;11.762;2023-01-06T13:40:25;10.30;99.90
22161;DHT22;49035;48.812;11.762;2023-01-06T13:43:06;10.10;99.90
22161;DHT22;49035;48.812;11.762;2023-01-06T13:45:36;10.10;99.90
22161;DHT22;49035;48.812;11.762;2023-01-06T13:48:03;10.00;99.90
22161;DHT22;49035;48.812;11.762;2023-01-06T13:50:35;10.00;99.90
22161;DHT22;49035;48.812;11.762;2023-01-06T13:53:03;9.90;99.90
22161;DHT22;49035;48.812;11.762;2023-01-06T13:55:31;9.80;99.90
22161;DHT22;49035;48.812;11.762;2023-01-06T14:03:31;9.70;99.90
22161;DHT22;49035;48.812;11.762;2023-01-06T14:05:59;9.70;99.90
22161;DHT22;49035;48.812;11.762;2023-01-06T14:08:30;9.70;99.90
22161;DHT22;49035;48.812;11.762;2023-01-06T14:10:59;9.60;99.90
22161;DHT22;49035;48.812;11.762;2023-01-06T14:16:06;9.60;99.90
22161;DHT22;49035;48.812;11.762;2023-01-06T14:18:42;9.60;99.90
22161;DHT22;49035;48.812;11.762;2023-01-06T14:23:47;9.60;99.90
22161;DHT22;49035;48.812;11.762;2023-01-06T14:26:13;9.50;99.90
22161;DHT22;49035;48.812;11.762;2023-01-06T14:28:39;9.50;99.90
22161;DHT22;49035;48.812;11.762;2023-01-06T14:34:00;9.30;99.90
22161;DHT22;49035;48.812;11.762;2023-01-06T14:36:28;9.30;99.90
22161;DHT22;49035;48.812;11.762;2023-01-06T14:38:59;9.30;99.90
22161;DHT22;49035;48.812;11.762;2023-01-06T14:41:36;9.30;99.90
22161;DHT22;49035;48.812;11.762;2023-01-06T14:44:20;9.20;99.90
22161;DHT22;49035;48.812;11.762;2023-01-06T14:47:10;9.10;99.90
22161;DHT22;49035;48.812;11.762;2023-01-06T14:50:07;9.10;99.90
22161;DHT22;49035;48.812;11.762;2023-01-06T14:52:37;9.10;99.90
22161;DHT22;49035;48.812;11.762;2023-01-06T14:55:08;9.10;99.90
22161;DHT22;49035;48.812;11.762;2023-01-06T14:57:36;9.10;99.90
22161;DHT22;49035;48.812;11.762;2023-01-06T15:02:43;9.00;99.90
22161;DHT22;49035;48.812;11.762;2023-01-06T15:05:17;8.90;99.90
22161;DHT22;49035;48.812;11.762;2023-01-06T15:10:26;8.80;99.90
22161;DHT22;49035;48.812;11.762;2023-01-06T15:12:53;8.70;99.90
22161;DHT22;49035;48.812;11.762;2023-01-06T15:15:24;8.70;99.90
22161;DHT22;49035;48.812;11.762;2023-01-06T15:17:50;8.60;99.90
22161;DHT22;49035;48.812;11.762;2023-01-06T15:20:18;8.60;99.90
22161;DHT22;49035;48.812;11.762;2023-01-06T15:22:48;8.50;99.90
22161;DHT22;49035;48.812;11.762;2023-01-06T15:25:22;8.40;99.90
22161;DHT22;49035;48.812;11.762;2023-01-06T15:27:48;8.30;99.90
22161;DHT22;49035;48.812;11.762;2023-01-06T15:30:17;8.30;99.90
22161;DHT22;49035;48.812;11.762;2023-01-06T15:32:43;8.30;99.90
22161;DHT22;49035;48.812;11.762;2023-01-06T15:35:15;8.30;99.90
22161;DHT22;49035;48.812;11.762;2023-01-06T15:37:43;8.30;99.90
22161;DHT22;49035;48.812;11.762;2023-01-06T15:40:17;8.20;99.90
22161;DHT22;49035;48.812;11.762;2023-01-06T15:42:43;8.20;99.90
22161;DHT22;49035;48.812;11.762;2023-01-06T15:45:21;8.20;99.90
22161;DHT22;49035;48.812;11.762;2023-01-06T15:47:47;8.20;99.90
22161;DHT22;49035;48.812;11.762;2023-01-06T15:50:22;8.20;99.90
22161;DHT22;49035;48.812;11.762;2023-01-06T15:52:57;8.20;99.90
22161;DHT22;49035;48.812;11.762;2023-01-06T15:58:07;8.20;99.90
22161;DHT22;49035;48.812;11.762;2023-01-06T16:00:45;8.20;99.90
22161;DHT22;49035;48.812;11.762;2023-01-06T16:03:19;8.20;99.90
22161;DHT22;49035;48.812;11.762;2023-01-06T16:05:46;8.20;99.90
22161;DHT22;49035;48.812;11.762;2023-01-06T16:08:25;8.10;99.90
22161;DHT22;49035;48.812;11.762;2023-01-06T16:11:23;8.10;99.90
22161;DHT22;49035;48.812;11.762;2023-01-06T16:14:30;8.10;99.90
22161;DHT22;49035;48.812;11.762;2023-01-06T16:17:08;8.00;99.90
22161;DHT22;49035;48.812;11.762;2023-01-06T16:19:55;8.00;99.90
22161;DHT22;49035;48.812;11.762;2023-01-06T16:25:31;7.90;99.90
22161;DHT22;49035;48.812;11.762;2023-01-06T16:27:59;7.90;99.90
22161;DHT22;49035;48.812;11.762;2023-01-06T16:32:54;7.90;99.90
22161;DHT22;49035;48.812;11.762;2023-01-06T16:35:22;7.80;99.90
22161;DHT22;49035;48.812;11.762;2023-01-06T16:37:48;7.80;99.90
22161;DHT22;49035;48.812;11.762;2023-01-06T16:40:16;7.80;99.90
22161;DHT22;49035;48.812;11.762;2023-01-06T16:42:43;7.90;99.90
22161;DHT22;49035;48.812;11.762;2023-01-06T16:47:40;7.70;99.90
22161;DHT22;49035;48.812;11.762;2023-01-06T16:55:28;7.70;99.90
22161;DHT22;49035;48.812;11.762;2023-01-06T16:57:55;7.70;99.90
22161;DHT22;49035;48.812;11.762;2023-01-06T17:00:22;7.70;99.90
22161;DHT22;49035;48.812;11.762;2023-01-06T17:02:49;7.60;99.90
22161;DHT22;49035;48.812;11.762;2023-01-06T17:05:27;7.60;99.90
22161;DHT22;49035;48.812;11.762;2023-01-06T17:08:00;7.60;99.90
22161;DHT22;49035;48.812;11.762;2023-01-06T17:10:27;7.60;99.90
22161;DHT22;49035;48.812;11.762;2023-01-06T17:13:00;7.60;99.90
22161;DHT22;49035;48.812;11.762;2023-01-06T17:15:45;7.60;99.90
22161;DHT22;49035;48.812;11.762;2023-01-06T17:18:23;7.60;99.90
22161;DHT22;49035;48.812;11.762;2023-01-06T17:20:49;7.50;99.90
22161;DHT22;49035;48.812;11.762;2023-01-06T17:23:15;7.50;99.90
22161;DHT22;49035;48.812;11.762;2023-01-06T17:25:41;7.50;99.90
22161;DHT22;49035;48.812;11.762;2023-01-06T17:28:20;7.50;99.90
22161;DHT22;49035;48.812;11.762;2023-01-06T17:30:47;7.50;99.90
22161;DHT22;49035;48.812;11.762;2023-01-06T17:33:15;7.50;99.90
22161;DHT22;49035;48.812;11.762;2023-01-06T17:35:42;7.40;99.90
22161;DHT22;49035;48.812;11.762;2023-01-06T17:38:22;7.40;99.90
22161;DHT22;49035;48.812;11.762;2023-01-06T17:40:49;7.50;99.90
22161;DHT22;49035;48.812;11.762;2023-01-06T17:43:30;7.40;99.90
22161;DHT22;49035;48.812;11.762;2023-01-06T17:45:58;7.40;99.90
22161;DHT22;49035;48.812;11.762;2023-01-06T17:48:25;7.40;99.90
22161;DHT22;49035;48.812;11.762;2023-01-06T17:50:53;7.40;99.90
22161;DHT22;49035;48.812;11.762;2023-01-06T17:53:31;7.40;99.90
22161;DHT22;49035;48.812;11.762;2023-01-06T17:56:16;7.40;99.90